sensor_id;sensor_type;location;lat;lon;timestamp;P1;durP1;ratioP1;P2;durP2;ratioP2
3795;SDS011;1913;50.660;7.834;2023-05-29T00:01:05;7.60;;;3.70;;
3795;SDS011;1913;50.660;7.834;2023-05-29T00:03:33;7.83;;;3.60;;
3795;SDS011;1913;50.660;7.834;2023-05-29T00:05:58;6.37;;;3.33;;
3795;SDS011;1913;50.660;7.834;2023-05-29T00:08:26;5.53;;;3.23;;
3795;SDS011;1913;50.660;7.834;2023-05-29T00:10:51;11.23;;;3.13;;
3795;SDS011;1913;50.660;7.834;2023-05-29T00:13:16;5.60;;;3.53;;
3795;SDS011;1913;50.660;7.834;2023-05-29T00:15:42;7.30;;;3.50;;
3795;SDS011;1913;50.660;7.834;2023-05-29T00:18:07;8.70;;;3.80;;
3795;SDS011;1913;50.660;7.834;2023-05-29T00:20:33;11.73;;;3.30;;
3795;SDS011;1913;50.660;7.834;2023-05-29T00:22:59;5.60;;;3.10;;
3795;SDS011;1913;50.660;7.834;2023-05-29T00:25:27;6.03;;;3.50;;
3795;SDS011;1913;50.660;7.834;2023-05-29T00:27:52;5.57;;;3.30;;
3795;SDS011;1913;50.660;7.834;2023-05-29T00:30:17;11.33;;;3.97;;
3795;SDS011;1913;50.660;7.834;2023-05-29T00:32:43;6.23;;;3.50;;
3795;SDS011;1913;50.660;7.834;2023-05-29T00:35:08;5.37;;;3.40;;
3795;SDS011;1913;50.660;7.834;2023-05-29T00:37:34;9.53;;;3.50;;
3795;SDS011;1913;50.660;7.834;2023-05-29T00:39:59;5.70;;;3.67;;
3795;SDS011;1913;50.660;7.834;2023-05-29T00:42:25;8.07;;;3.63;;
3795;SDS011;1913;50.660;7.834;2023-05-29T00:44:50;8.60;;;3.67;;
3795;SDS011;1913;50.660;7.834;2023-05-29T00:47:16;5.33;;;3.50;;
3795;SDS011;1913;50.660;7.834;2023-05-29T00:49:41;5.77;;;3.30;;
3795;SDS011;1913;50.660;7.834;2023-05-29T00:52:07;8.00;;;4.00;;
3795;SDS011;1913;50.660;7.834;2023-05-29T00:54:35;6.87;;;3.80;;
3795;SDS011;1913;50.660;7.834;2023-05-29T00:57:01;8.97;;;3.90;;
3795;SDS011;1913;50.660;7.834;2023-05-29T00:59:29;8.50;;;3.97;;
3795;SDS011;1913;50.660;7.834;2023-05-29T01:01:56;6.00;;;4.00;;
3795;SDS011;1913;50.660;7.834;2023-05-29T01:04:23;9.30;;;3.83;;
3795;SDS011;1913;50.660;7.834;2023-05-29T01:06:51;8.73;;;3.93;;
3795;SDS011;1913;50.660;7.834;2023-05-29T01:09:17;9.80;;;4.83;;
3795;SDS011;1913;50.660;7.834;2023-05-29T01:11:45;6.67;;;3.90;;
3795;SDS011;1913;50.660;7.834;2023-05-29T01:17:29;10.23;;;4.07;;
3795;SDS011;1913;50.660;7.834;2023-05-29T01:20:38;7.83;;;3.80;;
3795;SDS011;1913;50.660;7.834;2023-05-29T01:28:31;10.33;;;4.40;;
3795;SDS011;1913;50.660;7.834;2023-05-29T01:31:01;9.33;;;4.17;;
3795;SDS011;1913;50.660;7.834;2023-05-29T01:33:29;7.33;;;4.30;;
3795;SDS011;1913;50.660;7.834;2023-05-29T01:35:54;11.70;;;5.03;;
3795;SDS011;1913;50.660;7.834;2023-05-29T01:38:19;9.40;;;4.30;;
3795;SDS011;1913;50.660;7.834;2023-05-29T01:40:45;10.50;;;5.23;;
3795;SDS011;1913;50.660;7.834;2023-05-29T01:43:12;8.33;;;4.17;;
3795;SDS011;1913;50.660;7.834;2023-05-29T01:45:38;8.13;;;5.23;;
3795;SDS011;1913;50.660;7.834;2023-05-29T01:48:04;7.07;;;4.53;;
3795;SDS011;1913;50.660;7.834;2023-05-29T01:50:30;7.50;;;3.90;;
3795;SDS011;1913;50.660;7.834;2023-05-29T01:52:56;10.17;;;4.70;;
3795;SDS011;1913;50.660;7.834;2023-05-29T01:55:21;14.93;;;4.80;;
3795;SDS011;1913;50.660;7.834;2023-05-29T01:57:47;12.00;;;5.30;;
3795;SDS011;1913;50.660;7.834;2023-05-29T02:00:13;12.90;;;5.03;;
3795;SDS011;1913;50.660;7.834;2023-05-29T02:02:41;9.63;;;4.97;;
3795;SDS011;1913;50.660;7.834;2023-05-29T02:05:07;9.23;;;4.63;;
3795;SDS011;1913;50.660;7.834;2023-05-29T02:07:34;12.97;;;4.90;;
3795;SDS011;1913;50.660;7.834;2023-05-29T02:10:06;10.63;;;4.70;;
3795;SDS011;1913;50.660;7.834;2023-05-29T02:12:32;10.80;;;4.73;;
3795;SDS011;1913;50.660;7.834;2023-05-29T02:14:57;14.10;;;5.60;;
3795;SDS011;1913;50.660;7.834;2023-05-29T02:17:23;13.70;;;5.47;;
3795;SDS011;1913;50.660;7.834;2023-05-29T02:19:49;8.93;;;4.77;;
3795;SDS011;1913;50.660;7.834;2023-05-29T02:22:15;9.93;;;5.00;;
3795;SDS011;1913;50.660;7.834;2023-05-29T02:24:42;10.20;;;5.60;;
3795;SDS011;1913;50.660;7.834;2023-05-29T02:27:07;10.77;;;4.77;;
3795;SDS011;1913;50.660;7.834;2023-05-29T02:29:33;10.30;;;5.27;;
3795;SDS011;1913;50.660;7.834;2023-05-29T02:31:58;14.27;;;5.47;;
3795;SDS011;1913;50.660;7.834;2023-05-29T02:34:24;12.17;;;5.37;;
3795;SDS011;1913;50.660;7.834;2023-05-29T02:36:49;9.10;;;5.30;;
3795;SDS011;1913;50.660;7.834;2023-05-29T02:39:17;11.40;;;5.30;;
3795;SDS011;1913;50.660;7.834;2023-05-29T02:41:43;11.40;;;5.80;;
3795;SDS011;1913;50.660;7.834;2023-05-29T02:44:08;11.23;;;4.90;;
3795;SDS011;1913;50.660;7.834;2023-05-29T02:46:33;7.20;;;5.03;;
3795;SDS011;1913;50.660;7.834;2023-05-29T02:48:58;9.17;;;4.77;;
3795;SDS011;1913;50.660;7.834;2023-05-29T02:51:24;10.80;;;5.70;;
3795;SDS011;1913;50.660;7.834;2023-05-29T02:53:49;11.20;;;5.60;;
3795;SDS011;1913;50.660;7.834;2023-05-29T02:56:15;10.53;;;5.03;;
3795;SDS011;1913;50.660;7.834;2023-05-29T02:58:41;12.87;;;6.17;;
3795;SDS011;1913;50.660;7.834;2023-05-29T03:01:06;14.60;;;6.20;;
3795;SDS011;1913;50.660;7.834;2023-05-29T03:03:32;15.00;;;5.23;;
3795;SDS011;1913;50.660;7.834;2023-05-29T03:05:58;9.40;;;5.70;;
3795;SDS011;1913;50.660;7.834;2023-05-29T03:08:24;13.63;;;5.70;;
3795;SDS011;1913;50.660;7.834;2023-05-29T03:10:50;19.10;;;6.70;;
3795;SDS011;1913;50.660;7.834;2023-05-29T03:13:17;9.03;;;5.40;;
3795;SDS011;1913;50.660;7.834;2023-05-29T03:15:44;15.83;;;5.47;;
3795;SDS011;1913;50.660;7.834;2023-05-29T03:18:09;12.87;;;5.97;;
3795;SDS011;1913;50.660;7.834;2023-05-29T03:20:35;13.03;;;5.57;;
3795;SDS011;1913;50.660;7.834;2023-05-29T03:23:00;9.90;;;5.50;;
3795;SDS011;1913;50.660;7.834;2023-05-29T03:25:26;9.70;;;5.33;;
3795;SDS011;1913;50.660;7.834;2023-05-29T03:27:51;10.60;;;5.73;;
3795;SDS011;1913;50.660;7.834;2023-05-29T03:30:17;16.37;;;6.50;;
3795;SDS011;1913;50.660;7.834;2023-05-29T03:32:43;11.77;;;6.20;;
3795;SDS011;1913;50.660;7.834;2023-05-29T03:35:09;12.77;;;6.20;;
3795;SDS011;1913;50.660;7.834;2023-05-29T03:37:34;10.03;;;5.57;;
3795;SDS011;1913;50.660;7.834;2023-05-29T03:39:59;10.93;;;5.10;;
3795;SDS011;1913;50.660;7.834;2023-05-29T03:42:25;12.63;;;5.60;;
3795;SDS011;1913;50.660;7.834;2023-05-29T03:44:50;13.00;;;5.90;;
3795;SDS011;1913;50.660;7.834;2023-05-29T03:47:15;15.23;;;6.70;;
3795;SDS011;1913;50.660;7.834;2023-05-29T03:49:41;13.73;;;5.97;;
3795;SDS011;1913;50.660;7.834;2023-05-29T03:52:06;10.03;;;5.47;;
3795;SDS011;1913;50.660;7.834;2023-05-29T03:54:32;10.17;;;6.00;;
3795;SDS011;1913;50.660;7.834;2023-05-29T03:56:58;13.60;;;6.37;;
3795;SDS011;1913;50.660;7.834;2023-05-29T03:59:23;14.77;;;7.20;;
3795;SDS011;1913;50.660;7.834;2023-05-29T04:01:49;15.23;;;6.77;;
3795;SDS011;1913;50.660;7.834;2023-05-29T04:04:15;12.53;;;6.67;;
3795;SDS011;1913;50.660;7.834;2023-05-29T04:06:40;12.73;;;6.13;;
3795;SDS011;1913;50.660;7.834;2023-05-29T04:09:06;22.53;;;7.50;;
3795;SDS011;1913;50.660;7.834;2023-05-29T04:11:32;16.27;;;7.60;;
3795;SDS011;1913;50.660;7.834;2023-05-29T04:13:59;21.50;;;7.93;;
3795;SDS011;1913;50.660;7.834;2023-05-29T04:16:25;16.40;;;6.70;;
3795;SDS011;1913;50.660;7.834;2023-05-29T04:18:50;10.33;;;6.13;;
3795;SDS011;1913;50.660;7.834;2023-05-29T04:21:16;18.33;;;7.23;;
3795;SDS011;1913;50.660;7.834;2023-05-29T04:23:41;13.83;;;6.63;;
3795;SDS011;1913;50.660;7.834;2023-05-29T04:26:07;15.23;;;6.57;;
3795;SDS011;1913;50.660;7.834;2023-05-29T04:28:32;8.30;;;5.30;;
3795;SDS011;1913;50.660;7.834;2023-05-29T04:30:58;9.77;;;5.70;;
3795;SDS011;1913;50.660;7.834;2023-05-29T04:33:23;9.10;;;5.60;;
3795;SDS011;1913;50.660;7.834;2023-05-29T04:35:51;12.70;;;6.13;;
3795;SDS011;1913;50.660;7.834;2023-05-29T04:38:17;12.33;;;6.07;;
3795;SDS011;1913;50.660;7.834;2023-05-29T04:40:44;9.53;;;5.80;;
3795;SDS011;1913;50.660;7.834;2023-05-29T04:43:09;9.93;;;5.00;;
3795;SDS011;1913;50.660;7.834;2023-05-29T04:45:35;13.93;;;5.67;;
3795;SDS011;1913;50.660;7.834;2023-05-29T04:48:02;9.30;;;4.90;;
3795;SDS011;1913;50.660;7.834;2023-05-29T04:50:28;11.63;;;5.47;;
3795;SDS011;1913;50.660;7.834;2023-05-29T04:52:56;13.37;;;5.43;;
3795;SDS011;1913;50.660;7.834;2023-05-29T04:55:22;13.27;;;5.53;;
3795;SDS011;1913;50.660;7.834;2023-05-29T04:57:48;11.23;;;5.50;;
3795;SDS011;1913;50.660;7.834;2023-05-29T05:00:14;10.90;;;6.10;;
3795;SDS011;1913;50.660;7.834;2023-05-29T05:02:43;13.77;;;4.70;;
3795;SDS011;1913;50.660;7.834;2023-05-29T05:05:09;8.00;;;4.80;;
3795;SDS011;1913;50.660;7.834;2023-05-29T05:07:35;8.97;;;4.83;;
3795;SDS011;1913;50.660;7.834;2023-05-29T05:10:02;10.67;;;4.67;;
3795;SDS011;1913;50.660;7.834;2023-05-29T05:12:28;8.50;;;4.87;;
3795;SDS011;1913;50.660;7.834;2023-05-29T05:14:53;10.10;;;5.00;;
3795;SDS011;1913;50.660;7.834;2023-05-29T05:17:19;10.70;;;5.37;;
3795;SDS011;1913;50.660;7.834;2023-05-29T05:19:45;11.50;;;5.17;;
3795;SDS011;1913;50.660;7.834;2023-05-29T05:22:10;12.67;;;4.97;;
3795;SDS011;1913;50.660;7.834;2023-05-29T05:24:36;9.90;;;4.93;;
3795;SDS011;1913;50.660;7.834;2023-05-29T05:27:01;10.93;;;4.67;;
3795;SDS011;1913;50.660;7.834;2023-05-29T05:29:29;10.20;;;4.70;;
3795;SDS011;1913;50.660;7.834;2023-05-29T05:31:55;9.70;;;4.80;;
3795;SDS011;1913;50.660;7.834;2023-05-29T05:34:20;10.27;;;5.30;;
3795;SDS011;1913;50.660;7.834;2023-05-29T05:36:45;9.10;;;4.37;;
3795;SDS011;1913;50.660;7.834;2023-05-29T05:39:11;9.10;;;5.17;;
3795;SDS011;1913;50.660;7.834;2023-05-29T05:41:36;8.80;;;5.20;;
3795;SDS011;1913;50.660;7.834;2023-05-29T05:44:01;11.27;;;4.60;;
3795;SDS011;1913;50.660;7.834;2023-05-29T05:46:27;9.53;;;5.17;;
3795;SDS011;1913;50.660;7.834;2023-05-29T05:48:53;6.40;;;4.60;;
3795;SDS011;1913;50.660;7.834;2023-05-29T05:51:21;6.47;;;4.40;;
3795;SDS011;1913;50.660;7.834;2023-05-29T05:53:47;11.20;;;4.97;;
3795;SDS011;1913;50.660;7.834;2023-05-29T05:56:12;10.33;;;4.37;;
3795;SDS011;1913;50.660;7.834;2023-05-29T05:58:37;11.83;;;4.40;;
3795;SDS011;1913;50.660;7.834;2023-05-29T06:01:03;8.43;;;4.50;;
3795;SDS011;1913;50.660;7.834;2023-05-29T06:03:28;7.53;;;4.30;;
3795;SDS011;1913;50.660;7.834;2023-05-29T06:05:54;12.23;;;4.40;;
3795;SDS011;1913;50.660;7.834;2023-05-29T06:08:20;10.83;;;4.33;;
3795;SDS011;1913;50.660;7.834;2023-05-29T06:10:45;9.07;;;4.63;;
3795;SDS011;1913;50.660;7.834;2023-05-29T06:13:11;9.60;;;5.07;;
3795;SDS011;1913;50.660;7.834;2023-05-29T06:15:37;9.47;;;4.60;;
3795;SDS011;1913;50.660;7.834;2023-05-29T06:18:02;11.20;;;5.17;;
3795;SDS011;1913;50.660;7.834;2023-05-29T06:20:28;8.57;;;4.77;;
3795;SDS011;1913;50.660;7.834;2023-05-29T06:22:54;7.67;;;4.60;;
3795;SDS011;1913;50.660;7.834;2023-05-29T06:25:20;14.63;;;4.47;;
3795;SDS011;1913;50.660;7.834;2023-05-29T06:27:45;12.27;;;4.70;;
3795;SDS011;1913;50.660;7.834;2023-05-29T06:30:11;9.90;;;5.57;;
3795;SDS011;1913;50.660;7.834;2023-05-29T06:32:38;8.57;;;4.53;;
3795;SDS011;1913;50.660;7.834;2023-05-29T06:35:03;12.47;;;4.93;;
3795;SDS011;1913;50.660;7.834;2023-05-29T06:37:31;5.27;;;3.77;;
3795;SDS011;1913;50.660;7.834;2023-05-29T06:39:56;7.50;;;4.60;;
3795;SDS011;1913;50.660;7.834;2023-05-29T06:42:22;9.30;;;4.53;;
3795;SDS011;1913;50.660;7.834;2023-05-29T06:44:47;9.27;;;4.80;;
3795;SDS011;1913;50.660;7.834;2023-05-29T06:47:12;9.23;;;4.73;;
3795;SDS011;1913;50.660;7.834;2023-05-29T06:49:38;10.23;;;4.03;;
3795;SDS011;1913;50.660;7.834;2023-05-29T06:52:06;9.50;;;4.57;;
3795;SDS011;1913;50.660;7.834;2023-05-29T06:54:32;7.87;;;4.80;;
3795;SDS011;1913;50.660;7.834;2023-05-29T06:56:57;10.53;;;4.83;;
3795;SDS011;1913;50.660;7.834;2023-05-29T06:59:22;9.27;;;4.30;;
3795;SDS011;1913;50.660;7.834;2023-05-29T07:01:48;9.33;;;4.40;;
3795;SDS011;1913;50.660;7.834;2023-05-29T07:04:13;9.53;;;4.43;;
3795;SDS011;1913;50.660;7.834;2023-05-29T07:06:39;8.63;;;4.63;;
3795;SDS011;1913;50.660;7.834;2023-05-29T07:09:04;8.20;;;4.27;;
3795;SDS011;1913;50.660;7.834;2023-05-29T07:11:30;5.60;;;4.00;;
3795;SDS011;1913;50.660;7.834;2023-05-29T07:13:55;6.40;;;4.23;;
3795;SDS011;1913;50.660;7.834;2023-05-29T07:16:21;9.60;;;4.67;;
3795;SDS011;1913;50.660;7.834;2023-05-29T07:18:47;10.17;;;4.83;;
3795;SDS011;1913;50.660;7.834;2023-05-29T07:21:12;5.70;;;4.60;;
3795;SDS011;1913;50.660;7.834;2023-05-29T07:23:39;7.03;;;4.70;;
3795;SDS011;1913;50.660;7.834;2023-05-29T07:26:04;6.73;;;3.87;;
3795;SDS011;1913;50.660;7.834;2023-05-29T07:28:30;8.73;;;4.40;;
3795;SDS011;1913;50.660;7.834;2023-05-29T07:30:55;8.63;;;3.93;;
3795;SDS011;1913;50.660;7.834;2023-05-29T07:33:21;6.70;;;4.10;;
3795;SDS011;1913;50.660;7.834;2023-05-29T07:35:47;8.67;;;4.60;;
3795;SDS011;1913;50.660;7.834;2023-05-29T07:38:12;9.63;;;4.40;;
3795;SDS011;1913;50.660;7.834;2023-05-29T07:40:38;11.50;;;4.10;;
3795;SDS011;1913;50.660;7.834;2023-05-29T07:43:03;11.70;;;4.37;;
3795;SDS011;1913;50.660;7.834;2023-05-29T07:45:28;10.50;;;4.30;;
3795;SDS011;1913;50.660;7.834;2023-05-29T07:47:54;8.60;;;4.27;;
3795;SDS011;1913;50.660;7.834;2023-05-29T07:50:19;5.87;;;3.93;;
3795;SDS011;1913;50.660;7.834;2023-05-29T07:52:45;6.33;;;4.10;;
3795;SDS011;1913;50.660;7.834;2023-05-29T07:55:10;9.50;;;4.17;;
3795;SDS011;1913;50.660;7.834;2023-05-29T07:57:36;8.63;;;4.30;;
3795;SDS011;1913;50.660;7.834;2023-05-29T08:00:02;8.57;;;4.37;;
3795;SDS011;1913;50.660;7.834;2023-05-29T08:02:33;11.50;;;4.60;;
3795;SDS011;1913;50.660;7.834;2023-05-29T08:05:00;6.40;;;4.10;;
3795;SDS011;1913;50.660;7.834;2023-05-29T08:07:25;8.63;;;4.40;;
3795;SDS011;1913;50.660;7.834;2023-05-29T08:09:53;9.00;;;4.00;;
3795;SDS011;1913;50.660;7.834;2023-05-29T08:12:18;10.60;;;4.50;;
3795;SDS011;1913;50.660;7.834;2023-05-29T08:14:44;7.90;;;4.50;;
3795;SDS011;1913;50.660;7.834;2023-05-29T08:17:09;9.07;;;4.67;;
3795;SDS011;1913;50.660;7.834;2023-05-29T08:19:35;8.20;;;4.40;;
3795;SDS011;1913;50.660;7.834;2023-05-29T08:22:00;8.33;;;4.17;;
3795;SDS011;1913;50.660;7.834;2023-05-29T08:24:25;7.70;;;4.30;;
3795;SDS011;1913;50.660;7.834;2023-05-29T08:26:52;7.83;;;4.43;;
3795;SDS011;1913;50.660;7.834;2023-05-29T08:29:19;8.30;;;4.40;;
3795;SDS011;1913;50.660;7.834;2023-05-29T08:31:52;8.20;;;4.20;;
3795;SDS011;1913;50.660;7.834;2023-05-29T08:34:17;8.00;;;4.20;;
3795;SDS011;1913;50.660;7.834;2023-05-29T08:36:43;7.40;;;4.33;;
3795;SDS011;1913;50.660;7.834;2023-05-29T08:39:10;5.73;;;4.13;;
3795;SDS011;1913;50.660;7.834;2023-05-29T08:42:21;6.07;;;4.20;;
3795;SDS011;1913;50.660;7.834;2023-05-29T08:44:32;8.43;;;4.60;;
3795;SDS011;1913;50.660;7.834;2023-05-29T08:46:59;6.73;;;4.00;;
3795;SDS011;1913;50.660;7.834;2023-05-29T08:49:28;4.90;;;3.63;;
3795;SDS011;1913;50.660;7.834;2023-05-29T08:52:02;6.50;;;3.93;;
3795;SDS011;1913;50.660;7.834;2023-05-29T08:54:35;8.10;;;4.40;;
3795;SDS011;1913;50.660;7.834;2023-05-29T08:57:01;11.70;;;4.20;;
3795;SDS011;1913;50.660;7.834;2023-05-29T08:59:29;6.10;;;4.00;;
3795;SDS011;1913;50.660;7.834;2023-05-29T09:01:55;5.93;;;3.50;;
3795;SDS011;1913;50.660;7.834;2023-05-29T09:04:21;7.07;;;4.10;;
3795;SDS011;1913;50.660;7.834;2023-05-29T09:06:48;5.00;;;3.57;;
3795;SDS011;1913;50.660;7.834;2023-05-29T09:09:14;7.67;;;3.90;;
3795;SDS011;1913;50.660;7.834;2023-05-29T09:11:39;8.57;;;4.90;;
3795;SDS011;1913;50.660;7.834;2023-05-29T09:14:05;5.63;;;3.90;;
3795;SDS011;1913;50.660;7.834;2023-05-29T09:16:30;7.97;;;4.20;;
3795;SDS011;1913;50.660;7.834;2023-05-29T09:19:05;6.40;;;4.00;;
3795;SDS011;1913;50.660;7.834;2023-05-29T09:21:34;7.33;;;4.27;;
3795;SDS011;1913;50.660;7.834;2023-05-29T09:24:03;7.63;;;3.97;;
3795;SDS011;1913;50.660;7.834;2023-05-29T09:26:30;9.23;;;3.90;;
3795;SDS011;1913;50.660;7.834;2023-05-29T09:28:57;5.60;;;4.13;;
3795;SDS011;1913;50.660;7.834;2023-05-29T09:31:22;6.90;;;4.20;;
3795;SDS011;1913;50.660;7.834;2023-05-29T09:33:49;6.97;;;4.60;;
3795;SDS011;1913;50.660;7.834;2023-05-29T09:36:19;8.87;;;4.77;;
3795;SDS011;1913;50.660;7.834;2023-05-29T09:38:46;8.63;;;4.27;;
3795;SDS011;1913;50.660;7.834;2023-05-29T09:41:11;6.00;;;4.20;;
3795;SDS011;1913;50.660;7.834;2023-05-29T09:43:37;7.97;;;4.80;;
3795;SDS011;1913;50.660;7.834;2023-05-29T09:46:05;5.90;;;3.93;;
3795;SDS011;1913;50.660;7.834;2023-05-29T09:48:34;6.37;;;4.10;;
3795;SDS011;1913;50.660;7.834;2023-05-29T09:51:00;7.17;;;4.40;;
3795;SDS011;1913;50.660;7.834;2023-05-29T09:53:28;7.00;;;3.93;;
3795;SDS011;1913;50.660;7.834;2023-05-29T09:55:56;5.07;;;3.77;;
3795;SDS011;1913;50.660;7.834;2023-05-29T09:58:24;8.30;;;4.27;;
3795;SDS011;1913;50.660;7.834;2023-05-29T10:00:50;5.30;;;3.80;;
3795;SDS011;1913;50.660;7.834;2023-05-29T10:03:17;5.07;;;4.10;;
3795;SDS011;1913;50.660;7.834;2023-05-29T10:05:53;5.70;;;3.90;;
3795;SDS011;1913;50.660;7.834;2023-05-29T10:08:21;5.80;;;4.00;;
3795;SDS011;1913;50.660;7.834;2023-05-29T10:10:49;8.40;;;4.17;;
3795;SDS011;1913;50.660;7.834;2023-05-29T10:13:19;7.03;;;4.50;;
3795;SDS011;1913;50.660;7.834;2023-05-29T10:15:48;9.43;;;4.23;;
3795;SDS011;1913;50.660;7.834;2023-05-29T10:18:24;6.40;;;4.40;;
3795;SDS011;1913;50.660;7.834;2023-05-29T10:20:53;8.60;;;4.43;;
3795;SDS011;1913;50.660;7.834;2023-05-29T10:23:22;5.90;;;3.80;;
3795;SDS011;1913;50.660;7.834;2023-05-29T10:25:52;6.10;;;3.97;;
3795;SDS011;1913;50.660;7.834;2023-05-29T10:28:19;6.73;;;3.77;;
3795;SDS011;1913;50.660;7.834;2023-05-29T10:36:00;7.70;;;4.20;;
3795;SDS011;1913;50.660;7.834;2023-05-29T10:38:41;6.40;;;4.23;;
3795;SDS011;1913;50.660;7.834;2023-05-29T10:43:57;8.90;;;4.10;;
3795;SDS011;1913;50.660;7.834;2023-05-29T10:49:17;7.00;;;3.73;;
3795;SDS011;1913;50.660;7.834;2023-05-29T10:51:44;6.00;;;4.03;;
3795;SDS011;1913;50.660;7.834;2023-05-29T10:54:09;7.70;;;4.20;;
3795;SDS011;1913;50.660;7.834;2023-05-29T10:56:35;7.20;;;4.47;;
3795;SDS011;1913;50.660;7.834;2023-05-29T10:59:01;7.63;;;4.20;;
3795;SDS011;1913;50.660;7.834;2023-05-29T11:01:27;9.30;;;4.40;;
3795;SDS011;1913;50.660;7.834;2023-05-29T11:04:00;7.43;;;4.20;;
3795;SDS011;1913;50.660;7.834;2023-05-29T11:06:40;8.47;;;4.37;;
3795;SDS011;1913;50.660;7.834;2023-05-29T11:09:06;5.10;;;3.77;;
3795;SDS011;1913;50.660;7.834;2023-05-29T11:20:00;7.83;;;4.30;;
3795;SDS011;1913;50.660;7.834;2023-05-29T11:22:42;9.90;;;4.70;;
3795;SDS011;1913;50.660;7.834;2023-05-29T11:25:19;5.53;;;4.00;;
3795;SDS011;1913;50.660;7.834;2023-05-29T11:27:46;5.70;;;4.03;;
3795;SDS011;1913;50.660;7.834;2023-05-29T11:30:11;6.57;;;4.03;;
3795;SDS011;1913;50.660;7.834;2023-05-29T11:32:38;7.50;;;4.40;;
3795;SDS011;1913;50.660;7.834;2023-05-29T11:35:08;5.17;;;3.87;;
3795;SDS011;1913;50.660;7.834;2023-05-29T11:37:35;9.30;;;4.37;;
3795;SDS011;1913;50.660;7.834;2023-05-29T11:40:06;5.57;;;3.93;;
3795;SDS011;1913;50.660;7.834;2023-05-29T11:42:34;7.93;;;3.93;;
3795;SDS011;1913;50.660;7.834;2023-05-29T11:47:58;7.40;;;3.83;;
3795;SDS011;1913;50.660;7.834;2023-05-29T11:50:25;5.70;;;3.60;;
3795;SDS011;1913;50.660;7.834;2023-05-29T11:52:51;6.50;;;3.60;;
3795;SDS011;1913;50.660;7.834;2023-05-29T11:55:19;6.70;;;4.13;;
3795;SDS011;1913;50.660;7.834;2023-05-29T11:57:46;5.80;;;3.40;;
3795;SDS011;1913;50.660;7.834;2023-05-29T12:00:13;8.53;;;4.30;;
3795;SDS011;1913;50.660;7.834;2023-05-29T12:02:39;5.50;;;4.20;;
3795;SDS011;1913;50.660;7.834;2023-05-29T12:05:07;7.63;;;4.37;;
3795;SDS011;1913;50.660;7.834;2023-05-29T12:07:33;4.80;;;3.63;;
3795;SDS011;1913;50.660;7.834;2023-05-29T12:10:11;6.70;;;3.60;;
3795;SDS011;1913;50.660;7.834;2023-05-29T12:12:38;4.53;;;3.60;;
3795;SDS011;1913;50.660;7.834;2023-05-29T12:15:05;6.77;;;3.63;;
3795;SDS011;1913;50.660;7.834;2023-05-29T12:17:32;5.80;;;3.67;;
3795;SDS011;1913;50.660;7.834;2023-05-29T12:19:58;6.37;;;4.03;;
3795;SDS011;1913;50.660;7.834;2023-05-29T12:22:33;7.03;;;3.70;;
3795;SDS011;1913;50.660;7.834;2023-05-29T12:25:04;10.07;;;4.90;;
3795;SDS011;1913;50.660;7.834;2023-05-29T12:27:34;5.13;;;3.50;;
3795;SDS011;1913;50.660;7.834;2023-05-29T12:30:06;4.57;;;3.40;;
3795;SDS011;1913;50.660;7.834;2023-05-29T12:32:42;5.40;;;4.10;;
3795;SDS011;1913;50.660;7.834;2023-05-29T12:35:10;7.97;;;4.10;;
3795;SDS011;1913;50.660;7.834;2023-05-29T12:37:45;7.00;;;4.47;;
3795;SDS011;1913;50.660;7.834;2023-05-29T12:42:41;6.30;;;4.10;;
3795;SDS011;1913;50.660;7.834;2023-05-29T12:45:07;4.13;;;3.70;;
3795;SDS011;1913;50.660;7.834;2023-05-29T12:47:33;6.73;;;3.60;;
3795;SDS011;1913;50.660;7.834;2023-05-29T12:50:00;5.70;;;3.40;;
3795;SDS011;1913;50.660;7.834;2023-05-29T12:52:30;8.67;;;3.70;;
3795;SDS011;1913;50.660;7.834;2023-05-29T12:54:55;6.50;;;3.73;;
3795;SDS011;1913;50.660;7.834;2023-05-29T12:57:21;6.50;;;4.10;;
3795;SDS011;1913;50.660;7.834;2023-05-29T12:59:47;6.50;;;3.83;;
3795;SDS011;1913;50.660;7.834;2023-05-29T13:02:12;4.43;;;3.50;;
3795;SDS011;1913;50.660;7.834;2023-05-29T13:04:39;5.73;;;3.40;;
3795;SDS011;1913;50.660;7.834;2023-05-29T13:07:04;6.83;;;3.90;;
3795;SDS011;1913;50.660;7.834;2023-05-29T13:09:30;6.67;;;3.60;;
3795;SDS011;1913;50.660;7.834;2023-05-29T13:11:56;5.83;;;3.50;;
3795;SDS011;1913;50.660;7.834;2023-05-29T13:14:21;7.40;;;3.53;;
3795;SDS011;1913;50.660;7.834;2023-05-29T13:16:46;6.27;;;3.80;;
3795;SDS011;1913;50.660;7.834;2023-05-29T13:19:13;5.67;;;3.63;;
3795;SDS011;1913;50.660;7.834;2023-05-29T13:21:38;7.97;;;3.77;;
3795;SDS011;1913;50.660;7.834;2023-05-29T13:24:05;9.43;;;4.20;;
3795;SDS011;1913;50.660;7.834;2023-05-29T13:26:30;8.40;;;3.47;;
3795;SDS011;1913;50.660;7.834;2023-05-29T13:28:56;8.03;;;3.70;;
3795;SDS011;1913;50.660;7.834;2023-05-29T13:31:21;9.47;;;3.90;;
3795;SDS011;1913;50.660;7.834;2023-05-29T13:33:47;11.30;;;4.07;;
3795;SDS011;1913;50.660;7.834;2023-05-29T13:36:12;6.90;;;3.30;;
3795;SDS011;1913;50.660;7.834;2023-05-29T13:38:38;4.63;;;3.37;;
3795;SDS011;1913;50.660;7.834;2023-05-29T13:41:03;6.90;;;3.80;;
3795;SDS011;1913;50.660;7.834;2023-05-29T13:43:28;8.10;;;3.93;;
3795;SDS011;1913;50.660;7.834;2023-05-29T13:45:54;7.30;;;3.10;;
3795;SDS011;1913;50.660;7.834;2023-05-29T13:48:20;6.60;;;4.10;;
3795;SDS011;1913;50.660;7.834;2023-05-29T13:50:46;8.40;;;4.10;;
3795;SDS011;1913;50.660;7.834;2023-05-29T13:53:11;6.10;;;3.77;;
3795;SDS011;1913;50.660;7.834;2023-05-29T13:55:37;6.93;;;3.70;;
3795;SDS011;1913;50.660;7.834;2023-05-29T13:58:02;9.93;;;3.80;;
3795;SDS011;1913;50.660;7.834;2023-05-29T14:00:27;8.40;;;4.13;;
3795;SDS011;1913;50.660;7.834;2023-05-29T14:02:53;5.53;;;3.30;;
3795;SDS011;1913;50.660;7.834;2023-05-29T14:05:18;11.40;;;4.50;;
3795;SDS011;1913;50.660;7.834;2023-05-29T14:07:43;10.00;;;3.73;;
3795;SDS011;1913;50.660;7.834;2023-05-29T14:10:09;8.70;;;4.50;;
3795;SDS011;1913;50.660;7.834;2023-05-29T14:12:35;7.93;;;3.57;;
3795;SDS011;1913;50.660;7.834;2023-05-29T14:15:01;10.43;;;3.80;;
3795;SDS011;1913;50.660;7.834;2023-05-29T14:17:26;8.60;;;4.30;;
3795;SDS011;1913;50.660;7.834;2023-05-29T14:19:51;7.20;;;3.93;;
3795;SDS011;1913;50.660;7.834;2023-05-29T14:22:17;9.20;;;4.03;;
3795;SDS011;1913;50.660;7.834;2023-05-29T14:24:42;5.67;;;3.43;;
3795;SDS011;1913;50.660;7.834;2023-05-29T14:27:08;8.80;;;4.00;;
3795;SDS011;1913;50.660;7.834;2023-05-29T14:29:33;14.77;;;4.07;;
3795;SDS011;1913;50.660;7.834;2023-05-29T14:31:58;9.17;;;3.47;;
3795;SDS011;1913;50.660;7.834;2023-05-29T14:34:24;8.00;;;3.60;;
3795;SDS011;1913;50.660;7.834;2023-05-29T14:36:49;10.20;;;4.10;;
3795;SDS011;1913;50.660;7.834;2023-05-29T14:39:15;12.30;;;4.33;;
3795;SDS011;1913;50.660;7.834;2023-05-29T14:41:40;7.90;;;3.73;;
3795;SDS011;1913;50.660;7.834;2023-05-29T14:44:06;8.30;;;4.30;;
3795;SDS011;1913;50.660;7.834;2023-05-29T14:46:31;10.00;;;4.40;;
3795;SDS011;1913;50.660;7.834;2023-05-29T14:49:00;10.30;;;4.83;;
3795;SDS011;1913;50.660;7.834;2023-05-29T14:51:26;5.70;;;3.53;;
3795;SDS011;1913;50.660;7.834;2023-05-29T14:53:52;13.70;;;4.33;;
3795;SDS011;1913;50.660;7.834;2023-05-29T14:56:17;7.90;;;4.07;;
3795;SDS011;1913;50.660;7.834;2023-05-29T14:58:44;8.80;;;3.60;;
3795;SDS011;1913;50.660;7.834;2023-05-29T15:01:10;13.50;;;4.53;;
3795;SDS011;1913;50.660;7.834;2023-05-29T15:03:35;13.57;;;3.90;;
3795;SDS011;1913;50.660;7.834;2023-05-29T15:06:02;7.30;;;3.70;;
3795;SDS011;1913;50.660;7.834;2023-05-29T15:08:28;7.90;;;4.00;;
3795;SDS011;1913;50.660;7.834;2023-05-29T15:10:56;11.30;;;4.23;;
3795;SDS011;1913;50.660;7.834;2023-05-29T15:13:21;7.33;;;4.33;;
3795;SDS011;1913;50.660;7.834;2023-05-29T15:15:47;6.90;;;3.80;;
3795;SDS011;1913;50.660;7.834;2023-05-29T15:18:12;15.33;;;3.97;;
3795;SDS011;1913;50.660;7.834;2023-05-29T15:20:38;10.93;;;4.00;;
3795;SDS011;1913;50.660;7.834;2023-05-29T15:23:03;7.37;;;3.73;;
3795;SDS011;1913;50.660;7.834;2023-05-29T15:25:28;11.93;;;3.90;;
3795;SDS011;1913;50.660;7.834;2023-05-29T15:27:54;13.43;;;4.17;;
3795;SDS011;1913;50.660;7.834;2023-05-29T15:30:20;13.60;;;4.17;;
3795;SDS011;1913;50.660;7.834;2023-05-29T15:32:46;10.33;;;4.50;;
3795;SDS011;1913;50.660;7.834;2023-05-29T15:35:13;9.50;;;3.80;;
3795;SDS011;1913;50.660;7.834;2023-05-29T15:37:40;5.27;;;3.37;;
3795;SDS011;1913;50.660;7.834;2023-05-29T15:40:06;9.60;;;3.83;;